Time;durP1;ratioP1;P1;durP2;ratioP2;P2;SDS_P1;SDS_P2;PMS_P1;PMS_P2;Temp;Humidity;BMP_temperature;BMP_pressure;BME280_temperature;BME280_humidity;BME280_pressure;Samples;Min_cycle;Max_cycle;Signal;HPM_P1;HPM_P2
2022/03/07 00:01:54;;;;;;;76.97;47.47;;;2.30;99.90;;;;;;4972379;28;20055;-72
2022/03/07 00:04:20;;;;;;;98.60;57.15;;;2.30;99.90;;;;;;4971136;28;20027;-71
2022/03/07 00:06:46;;;;;;;97.15;57.10;;;2.30;99.90;;;;;;4971208;28;20058;-72
2022/03/07 00:09:13;;;;;;;52.13;35.92;;;2.30;99.90;;;;;;4969414;28;20492;-71
2022/03/07 00:11:41;;;;;;;51.65;34.83;;;2.30;99.90;;;;;;4968529;28;20047;-72
2022/03/07 00:14:06;;;;;;;53.97;35.45;;;2.40;99.90;;;;;;4971229;28;20041;-71
2022/03/07 00:16:33;;;;;;;56.78;37.15;;;2.30;99.90;;;;;;4971961;28;20097;-71
2022/03/07 00:18:59;;;;;;;54.35;36.25;;;2.30;99.90;;;;;;4972796;28;20032;-72
2022/03/07 00:21:25;;;;;;;45.92;31.70;;;2.30;99.90;;;;;;4972796;28;20042;-71
2022/03/07 00:23:51;;;;;;;46.78;33.22;;;2.30;99.90;;;;;;4972530;28;20050;-71
2022/03/07 00:26:18;;;;;;;54.92;39.25;;;2.20;99.90;;;;;;4971238;28;20457;-72
2022/03/07 00:28:48;;;;;;;49.78;32.95;;;2.20;99.90;;;;;;4972191;28;20447;-73
2022/03/07 00:31:14;;;;;;;44.40;31.85;;;2.20;99.90;;;;;;4976937;28;20022;-72
2022/03/07 00:33:41;;;;;;;44.97;30.58;;;2.20;99.90;;;;;;4972981;28;20039;-72
2022/03/07 00:36:08;;;;;;;48.45;33.67;;;2.20;99.90;;;;;;4972505;28;20031;-72
2022/03/07 00:38:34;;;;;;;44.90;31.58;;;2.10;99.90;;;;;;4972577;28;20069;-72
2022/03/07 00:41:00;;;;;;;51.67;33.45;;;2.10;99.90;;;;;;4970662;28;20034;-72
2022/03/07 00:43:26;;;;;;;49.35;33.00;;;2.00;99.90;;;;;;4972288;28;20435;-71
2022/03/07 00:45:52;;;;;;;46.25;30.73;;;2.00;99.90;;;;;;4975412;28;20075;-72
2022/03/07 00:48:19;;;;;;;46.40;32.47;;;2.00;99.90;;;;;;4974728;28;20034;-72
2022/03/07 00:50:46;;;;;;;47.60;32.15;;;2.10;99.90;;;;;;4975998;28;20030;-72
2022/03/07 00:53:15;;;;;;;46.15;32.53;;;2.10;99.90;;;;;;4975785;28;20389;-72
2022/03/07 00:55:41;;;;;;;46.60;31.60;;;2.00;99.90;;;;;;4974985;28;20030;-71
2022/03/07 00:58:09;;;;;;;45.92;32.78;;;2.00;99.90;;;;;;4974654;28;20050;-72
2022/03/07 01:00:36;;;;;;;48.92;32.30;;;1.90;99.90;;;;;;4974360;28;20066;-72
2022/03/07 01:03:04;;;;;;;56.63;37.13;;;2.00;99.90;;;;;;4974628;28;20039;-72
2022/03/07 01:05:30;;;;;;;60.40;39.03;;;2.00;99.90;;;;;;4975839;28;20031;-73
2022/03/07 01:07:56;;;;;;;52.17;35.95;;;1.90;99.90;;;;;;4976017;28;20440;-72
2022/03/07 01:10:23;;;;;;;56.15;37.10;;;1.90;99.90;;;;;;4975796;28;20503;-72
2022/03/07 01:12:49;;;;;;;50.13;35.53;;;1.90;99.90;;;;;;4975643;28;20117;-71
2022/03/07 01:15:19;;;;;;;49.20;33.97;;;2.00;99.90;;;;;;4975114;28;20400;-70
2022/03/07 01:17:45;;;;;;;52.05;34.70;;;2.00;99.90;;;;;;4975412;28;20023;-71
2022/03/07 01:20:12;;;;;;;57.13;38.22;;;2.00;99.90;;;;;;4974579;28;20029;-71
2022/03/07 01:22:38;;;;;;;53.70;36.80;;;2.10;99.90;;;;;;4975570;28;20027;-72
2022/03/07 01:25:05;;;;;;;59.05;38.10;;;2.10;99.90;;;;;;4975829;28;20025;-71
2022/03/07 01:27:32;;;;;;;48.03;32.03;;;2.20;99.90;;;;;;4975570;28;20030;-72
2022/03/07 01:29:58;;;;;;;46.80;32.20;;;2.20;99.90;;;;;;4975229;28;20106;-71
2022/03/07 01:32:24;;;;;;;41.75;30.60;;;2.20;99.90;;;;;;4975390;28;20101;-72
2022/03/07 01:34:50;;;;;;;43.90;29.58;;;2.30;99.90;;;;;;4975151;28;20031;-71
2022/03/07 01:37:17;;;;;;;41.40;28.63;;;2.30;99.90;;;;;;4987134;28;20081;-73
2022/03/07 01:39:43;;;;;;;42.08;27.45;;;2.30;99.90;;;;;;4975218;28;20109;-72
2022/03/07 01:42:10;;;;;;;41.28;27.42;;;2.30;99.90;;;;;;4975424;28;20022;-72
2022/03/07 01:44:37;;;;;;;41.47;30.23;;;2.30;99.90;;;;;;4973958;28;20038;-73
2022/03/07 01:47:07;;;;;;;42.33;30.52;;;2.30;99.90;;;;;;4973872;28;20081;-72
2022/03/07 01:49:34;;;;;;;47.55;32.63;;;2.20;99.90;;;;;;4969653;28;20055;-72
2022/03/07 01:52:00;;;;;;;41.25;31.40;;;2.20;99.90;;;;;;4954493;28;20486;-72
2022/03/07 01:54:28;;;;;;;49.40;34.38;;;2.20;99.90;;;;;;4954142;28;20046;-73
2022/03/07 01:56:55;;;;;;;47.67;33.53;;;2.20;99.90;;;;;;4957281;28;20054;-72
2022/03/07 01:59:24;;;;;;;49.60;34.22;;;2.10;99.90;;;;;;4973240;28;20069;-72
2022/03/07 02:01:50;;;;;;;50.00;33.13;;;2.20;99.90;;;;;;4973611;28;20026;-72
2022/03/07 02:04:17;;;;;;;44.03;29.33;;;2.20;99.90;;;;;;4973582;28;20039;-72
2022/03/07 02:06:45;;;;;;;50.60;35.65;;;2.20;99.90;;;;;;4973361;28;20030;-72
2022/03/07 02:09:11;;;;;;;47.75;31.42;;;2.20;99.90;;;;;;4971715;28;20037;-72
2022/03/07 02:11:44;;;;;;;46.70;33.28;;;2.30;99.90;;;;;;4974848;28;20030;-72
2022/03/07 02:14:16;;;;;;;49.85;34.65;;;2.30;99.90;;;;;;4973408;28;20046;-71
2022/03/07 02:16:45;;;;;;;46.10;28.73;;;2.30;99.90;;;;;;4989755;28;20030;-71
2022/03/07 02:19:12;;;;;;;47.58;30.25;;;2.20;99.90;;;;;;4973303;28;20489;-72
2022/03/07 02:21:44;;;;;;;42.22;26.45;;;2.20;99.90;;;;;;4973175;28;20031;-72
2022/03/07 02:24:19;;;;;;;39.55;24.55;;;2.20;99.90;;;;;;4973337;28;20070;-71
2022/03/07 02:27:01;;;;;;;38.97;27.67;;;2.20;99.90;;;;;;4973281;28;20039;-73
2022/03/07 02:29:28;;;;;;;36.90;24.95;;;2.20;99.90;;;;;;4973132;28;20031;-72
2022/03/07 02:31:57;;;;;;;37.13;25.23;;;2.20;99.90;;;;;;4973677;28;20058;-72
2022/03/07 02:34:26;;;;;;;38.70;27.17;;;2.30;99.90;;;;;;4953505;28;20406;-71
2022/03/07 02:36:52;;;;;;;40.88;26.58;;;2.30;99.90;;;;;;4969873;28;20139;-72
2022/03/07 02:39:21;;;;;;;38.50;24.67;;;2.20;99.90;;;;;;4953543;28;20113;-72
2022/03/07 02:41:47;;;;;;;37.65;25.88;;;2.20;99.90;;;;;;4974309;28;20092;-72
2022/03/07 02:44:13;;;;;;;40.00;26.30;;;2.20;99.90;;;;;;4973113;28;20050;-73
2022/03/07 02:46:39;;;;;;;41.05;28.60;;;2.20;99.90;;;;;;4973020;28;20051;-72
2022/03/07 02:49:06;;;;;;;47.05;30.30;;;2.20;99.90;;;;;;4984410;28;20027;-73
2022/03/07 02:51:33;;;;;;;43.08;28.17;;;2.20;99.90;;;;;;4973079;28;20113;-72
2022/03/07 02:53:59;;;;;;;43.60;30.48;;;2.30;99.90;;;;;;4969105;28;20039;-71
2022/03/07 02:56:25;;;;;;;43.80;29.15;;;2.20;99.90;;;;;;4954758;29;20027;-72
2022/03/07 02:58:51;;;;;;;37.13;26.58;;;2.30;99.90;;;;;;4954529;28;20035;-72
2022/03/07 03:01:17;;;;;;;40.63;27.88;;;2.20;99.90;;;;;;4962756;28;20023;-72
2022/03/07 03:03:43;;;;;;;39.55;25.83;;;2.20;99.90;;;;;;4973758;28;20023;-72
2022/03/07 03:06:09;;;;;;;32.45;22.67;;;2.20;99.90;;;;;;4973179;28;20031;-71
2022/03/07 03:08:35;;;;;;;38.05;25.10;;;2.20;99.90;;;;;;4973764;28;20081;-72
2022/03/07 03:11:01;;;;;;;34.28;23.33;;;2.20;99.90;;;;;;4973721;28;20061;-72
2022/03/07 03:13:28;;;;;;;34.03;22.30;;;2.20;99.90;;;;;;4973732;28;20039;-70
2022/03/07 03:15:54;;;;;;;33.15;22.25;;;2.20;99.90;;;;;;4973255;28;20022;-71
2022/03/07 03:18:22;;;;;;;35.28;23.70;;;2.20;99.90;;;;;;4973302;28;20077;-72
2022/03/07 03:20:50;;;;;;;31.85;21.30;;;2.30;99.90;;;;;;4973292;28;20429;-72
2022/03/07 03:23:17;;;;;;;36.20;22.73;;;2.20;99.90;;;;;;4973062;28;20114;-72
2022/03/07 03:25:43;;;;;;;33.70;22.30;;;2.20;99.90;;;;;;4973202;28;20038;-72
2022/03/07 03:28:08;;;;;;;36.10;23.35;;;2.30;99.90;;;;;;4973030;28;20081;-72
2022/03/07 03:30:34;;;;;;;34.53;23.08;;;2.30;99.90;;;;;;4972890;28;20034;-72
2022/03/07 03:33:01;;;;;;;34.08;22.30;;;2.30;99.90;;;;;;4972884;28;20031;-72
2022/03/07 03:35:26;;;;;;;33.78;21.77;;;2.30;99.90;;;;;;4972705;28;20137;-72
2022/03/07 03:37:52;;;;;;;34.40;22.73;;;2.30;99.90;;;;;;4973060;28;20043;-71
2022/03/07 03:40:19;;;;;;;33.92;22.25;;;2.30;99.90;;;;;;4972957;28;20023;-72
2022/03/07 03:42:45;;;;;;;35.53;22.63;;;2.30;99.90;;;;;;4972380;28;20073;-72
2022/03/07 03:45:12;;;;;;;38.35;23.45;;;2.30;99.90;;;;;;4971999;28;20098;-72
2022/03/07 03:47:39;;;;;;;37.03;24.15;;;2.30;99.90;;;;;;4972755;28;20469;-72
2022/03/07 03:50:08;;;;;;;38.88;24.33;;;2.30;99.90;;;;;;4973115;28;20882;-73
2022/03/07 03:52:34;;;;;;;38.95;25.58;;;2.30;99.90;;;;;;4972507;28;20054;-71
2022/03/07 03:55:02;;;;;;;38.17;24.55;;;2.20;99.90;;;;;;4972906;28;20035;-71
2022/03/07 03:57:28;;;;;;;40.53;25.02;;;2.20;99.90;;;;;;4973015;28;20034;-71
2022/03/07 03:59:56;;;;;;;39.50;24.27;;;2.20;99.90;;;;;;4972512;28;20130;-72
2022/03/07 04:02:21;;;;;;;37.05;24.45;;;2.20;99.90;;;;;;4972296;28;20508;-72
2022/03/07 04:04:47;;;;;;;33.58;21.92;;;2.20;99.90;;;;;;4972551;28;20035;-71
2022/03/07 04:07:13;;;;;;;34.22;22.80;;;2.30;99.90;;;;;;4972524;28;20094;-72
2022/03/07 04:09:40;;;;;;;36.70;24.92;;;2.20;99.90;;;;;;4972139;28;20397;-72
2022/03/07 04:12:06;;;;;;;37.67;25.23;;;2.20;99.90;;;;;;4953613;28;20036;-72
2022/03/07 04:14:32;;;;;;;39.92;25.58;;;2.20;99.90;;;;;;4959708;28;20034;-72
2022/03/07 04:16:58;;;;;;;36.15;23.75;;;2.10;99.90;;;;;;4972537;28;20433;-72
2022/03/07 04:19:24;;;;;;;42.08;26.00;;;2.20;99.90;;;;;;4976562;28;20023;-72
2022/03/07 04:21:50;;;;;;;44.40;28.90;;;2.20;99.90;;;;;;4976186;28;20074;-73
2022/03/07 04:24:16;;;;;;;46.97;29.63;;;2.20;99.90;;;;;;4975955;28;20437;-72
2022/03/07 04:26:43;;;;;;;48.65;32.03;;;2.10;99.90;;;;;;4975683;28;20042;-72
2022/03/07 04:29:09;;;;;;;43.75;30.15;;;2.10;99.90;;;;;;4973184;28;20038;-73
2022/03/07 04:31:43;;;;;;;37.05;24.83;;;2.20;99.90;;;;;;4975302;28;20114;-72
2022/03/07 04:34:10;;;;;;;42.92;28.08;;;2.20;99.90;;;;;;4975684;28;20043;-73
2022/03/07 04:36:40;;;;;;;42.08;29.13;;;2.10;99.90;;;;;;4975762;28;20093;-73
2022/03/07 04:39:08;;;;;;;49.83;30.83;;;2.10;99.90;;;;;;4975664;28;20557;-74
2022/03/07 04:41:35;;;;;;;47.40;30.10;;;2.20;99.90;;;;;;4976257;28;20027;-72
2022/03/07 04:44:01;;;;;;;46.15;31.35;;;2.20;99.90;;;;;;4975894;28;20034;-72
2022/03/07 04:46:27;;;;;;;40.08;27.77;;;2.20;99.90;;;;;;4975505;28;20047;-72
2022/03/07 04:48:53;;;;;;;45.42;29.10;;;2.20;99.90;;;;;;4975999;28;20034;-71
2022/03/07 04:51:19;;;;;;;42.85;27.27;;;2.10;99.90;;;;;;4991097;28;20026;-72
2022/03/07 04:53:45;;;;;;;49.08;29.98;;;2.20;99.90;;;;;;4975463;28;20126;-72
2022/03/07 04:56:11;;;;;;;44.10;28.63;;;2.00;99.90;;;;;;4975908;28;20033;-72
2022/03/07 04:58:37;;;;;;;42.92;28.17;;;2.00;99.90;;;;;;4975720;28;20031;-72
2022/03/07 05:01:03;;;;;;;40.90;25.67;;;2.00;99.90;;;;;;4976122;28;20045;-71
2022/03/07 05:03:29;;;;;;;40.35;26.80;;;2.00;99.90;;;;;;4975222;28;20038;-72
2022/03/07 05:05:55;;;;;;;38.88;26.38;;;2.00;99.90;;;;;;4975769;28;20039;-72
2022/03/07 05:08:21;;;;;;;42.72;27.08;;;2.00;99.90;;;;;;4974733;28;20030;-72
2022/03/07 05:10:47;;;;;;;44.22;28.77;;;2.00;99.90;;;;;;4975540;28;20019;-72
2022/03/07 05:13:13;;;;;;;46.92;27.83;;;2.00;99.90;;;;;;4975257;28;20042;-72
2022/03/07 05:15:39;;;;;;;46.28;28.65;;;2.00;99.90;;;;;;4975037;28;20027;-71
2022/03/07 05:18:05;;;;;;;42.15;28.13;;;2.00;99.90;;;;;;4974500;28;20023;-73
2022/03/07 05:20:31;;;;;;;43.45;26.58;;;2.00;99.90;;;;;;4989852;28;20035;-71
2022/03/07 05:22:57;;;;;;;39.63;26.90;;;2.00;99.90;;;;;;4974743;28;20035;-72
2022/03/07 05:25:23;;;;;;;40.30;26.02;;;1.90;99.90;;;;;;4974650;28;20030;-72
2022/03/07 05:27:49;;;;;;;41.60;26.65;;;1.90;99.90;;;;;;4974159;28;20023;-71
2022/03/07 05:30:17;;;;;;;43.42;28.67;;;1.90;99.90;;;;;;4974658;28;20053;-70
2022/03/07 05:32:45;;;;;;;46.35;28.20;;;2.00;99.90;;;;;;4975428;28;20373;-72
2022/03/07 05:35:12;;;;;;;51.10;32.63;;;1.90;99.90;;;;;;4974858;28;20026;-72
2022/03/07 05:37:39;;;;;;;48.20;32.58;;;1.90;99.90;;;;;;4979815;28;20495;-73
2022/03/07 05:40:08;;;;;;;59.45;37.10;;;1.90;99.90;;;;;;4987985;28;20034;-72
2022/03/07 05:42:36;;;;;;;54.17;35.40;;;1.90;99.90;;;;;;4982235;28;20068;-72
2022/03/07 05:45:02;;;;;;;52.70;33.20;;;1.90;99.90;;;;;;4994336;28;20133;-72
2022/03/07 05:47:28;;;;;;;45.33;30.45;;;2.00;99.90;;;;;;4993156;28;20109;-72
2022/03/07 05:49:54;;;;;;;43.17;28.63;;;2.00;99.90;;;;;;4978623;28;20106;-73
2022/03/07 05:52:20;;;;;;;41.83;26.67;;;2.00;99.90;;;;;;4983492;28;20038;-72
2022/03/07 05:54:45;;;;;;;40.20;27.80;;;2.10;99.90;;;;;;4993635;28;20417;-72
2022/03/07 05:57:11;;;;;;;41.72;27.35;;;2.10;99.90;;;;;;4993890;28;20018;-73
2022/03/07 05:59:37;;;;;;;47.50;31.17;;;2.00;99.90;;;;;;4985531;28;20577;-73
2022/03/07 06:02:03;;;;;;;49.10;29.95;;;2.10;99.90;;;;;;4980243;28;20027;-72
2022/03/07 06:04:29;;;;;;;58.22;37.15;;;2.10;99.90;;;;;;4979678;28;20041;-73
2022/03/07 06:06:55;;;;;;;57.75;38.00;;;2.10;99.90;;;;;;4974808;28;20397;-72
2022/03/07 06:09:21;;;;;;;51.50;33.53;;;2.20;99.90;;;;;;4975407;28;20381;-72
2022/03/07 06:11:47;;;;;;;50.80;32.58;;;2.20;99.90;;;;;;4976464;28;20034;-72
2022/03/07 06:14:13;;;;;;;46.53;31.05;;;2.10;99.90;;;;;;4986436;28;20043;-72
2022/03/07 06:16:39;;;;;;;48.03;32.88;;;2.10;99.90;;;;;;4974124;28;20050;-73
2022/03/07 06:19:04;;;;;;;53.67;33.33;;;2.10;99.90;;;;;;4973934;28;20023;-72
2022/03/07 06:21:30;;;;;;;54.20;33.85;;;2.10;99.90;;;;;;4973725;28;20030;-73
2022/03/07 06:23:56;;;;;;;49.20;33.30;;;2.10;99.90;;;;;;4973772;28;20610;-73
2022/03/07 06:26:23;;;;;;;46.75;30.25;;;2.10;99.90;;;;;;4974038;28;20023;-72
2022/03/07 06:28:50;;;;;;;40.35;27.48;;;2.10;99.90;;;;;;4973942;28;20101;-72
2022/03/07 06:31:16;;;;;;;46.60;30.52;;;2.10;99.90;;;;;;4974246;28;20109;-72
2022/03/07 06:33:42;;;;;;;41.83;26.58;;;2.20;99.90;;;;;;4973576;28;20039;-72
2022/03/07 06:36:08;;;;;;;35.88;23.35;;;2.20;99.90;;;;;;4974188;28;20366;-72
2022/03/07 06:38:35;;;;;;;33.92;23.23;;;2.20;99.90;;;;;;4973619;28;20078;-72
2022/03/07 06:41:02;;;;;;;36.75;24.48;;;2.20;99.90;;;;;;4972184;28;20027;-72
2022/03/07 06:43:28;;;;;;;36.47;25.48;;;2.20;99.90;;;;;;4973343;28;20027;-73
2022/03/07 06:45:54;;;;;;;42.97;24.98;;;2.20;99.90;;;;;;4973372;28;20062;-72
2022/03/07 06:48:20;;;;;;;39.85;26.65;;;2.20;99.90;;;;;;4974380;28;20027;-71
2022/03/07 06:51:05;;;;;;;43.05;25.88;;;2.30;99.90;;;;;;4974618;28;20042;-73
2022/03/07 06:53:31;;;;;;;35.90;25.48;;;2.30;99.90;;;;;;4973074;28;20050;-73
2022/03/07 06:55:57;;;;;;;39.65;25.55;;;2.30;99.90;;;;;;4973393;28;20015;-73
2022/03/07 06:58:23;;;;;;;41.95;25.80;;;2.30;99.90;;;;;;4973556;28;20385;-73
2022/03/07 07:00:49;;;;;;;37.72;24.95;;;2.40;99.90;;;;;;4973302;28;20027;-73
2022/03/07 07:03:15;;;;;;;36.88;23.20;;;2.40;99.90;;;;;;4973279;28;20022;-73
2022/03/07 07:05:40;;;;;;;33.10;22.15;;;2.50;99.90;;;;;;4973374;28;20123;-73
2022/03/07 07:08:06;;;;;;;34.25;23.73;;;2.50;99.90;;;;;;4973115;28;20684;-73
2022/03/07 07:10:32;;;;;;;33.33;20.77;;;2.60;99.90;;;;;;4973716;28;20138;-73
2022/03/07 07:12:58;;;;;;;38.25;23.88;;;2.70;99.90;;;;;;4973077;28;20015;-72
2022/03/07 07:15:24;;;;;;;34.72;23.50;;;2.70;99.90;;;;;;4973563;28;20023;-72
2022/03/07 07:17:50;;;;;;;33.55;22.33;;;2.80;99.90;;;;;;4973397;28;20031;-73
2022/03/07 07:20:16;;;;;;;32.83;20.35;;;2.90;99.90;;;;;;4973337;28;20596;-73
2022/03/07 07:22:42;;;;;;;39.85;26.40;;;2.80;99.90;;;;;;4973027;28;20363;-73
2022/03/07 07:25:09;;;;;;;34.42;22.35;;;2.90;99.90;;;;;;4973306;28;20062;-72
2022/03/07 07:27:35;;;;;;;32.10;21.90;;;2.90;99.90;;;;;;4973457;28;20026;-73
2022/03/07 07:30:02;;;;;;;30.33;20.38;;;3.00;99.90;;;;;;4971865;28;20046;-73
2022/03/07 07:32:28;;;;;;;29.70;19.73;;;3.00;99.90;;;;;;4969034;28;20041;-73
2022/03/07 07:34:54;;;;;;;55.40;36.55;;;3.10;99.90;;;;;;4969275;28;20038;-73
2022/03/07 07:37:20;;;;;;;59.63;39.35;;;3.10;99.90;;;;;;4972888;28;20130;-73
2022/03/07 07:39:47;;;;;;;63.05;42.63;;;3.00;99.90;;;;;;4972145;28;20045;-73
2022/03/07 07:42:13;;;;;;;72.43;47.05;;;3.10;99.90;;;;;;4973409;28;20038;-73
2022/03/07 07:44:39;;;;;;;64.90;45.05;;;3.20;99.90;;;;;;4972689;28;20023;-73
2022/03/07 07:47:07;;;;;;;50.03;34.40;;;3.30;99.90;;;;;;4972879;28;20019;-73
2022/03/07 07:49:33;;;;;;;45.38;29.83;;;3.40;99.90;;;;;;4972718;28;20066;-72
2022/03/07 07:51:59;;;;;;;44.35;28.20;;;3.60;99.90;;;;;;4973050;28;20027;-73
2022/03/07 07:54:25;;;;;;;50.08;34.60;;;3.60;99.90;;;;;;4987079;28;20174;-73
2022/03/07 07:56:51;;;;;;;48.17;32.85;;;3.50;99.90;;;;;;4972457;28;20023;-73
2022/03/07 07:59:18;;;;;;;47.90;30.67;;;3.50;99.90;;;;;;4972104;28;20038;-72
2022/03/07 08:01:44;;;;;;;46.30;29.90;;;3.50;99.90;;;;;;4972161;28;20038;-73
2022/03/07 08:04:12;;;;;;;45.38;29.00;;;3.30;99.90;;;;;;4971912;28;20129;-73
2022/03/07 08:06:39;;;;;;;43.25;28.08;;;3.40;99.90;;;;;;4965678;28;20031;-73
2022/03/07 08:09:05;;;;;;;46.88;30.27;;;3.40;99.90;;;;;;4969567;28;20066;-72
2022/03/07 08:11:31;;;;;;;57.45;34.22;;;3.40;99.90;;;;;;4971736;28;20080;-73
2022/03/07 08:13:57;;;;;;;52.03;32.25;;;3.40;99.90;;;;;;4971618;28;20066;-73
2022/03/07 08:16:23;;;;;;;48.58;32.17;;;3.40;99.90;;;;;;4969815;28;20023;-73
2022/03/07 08:18:49;;;;;;;47.80;30.42;;;3.20;99.90;;;;;;4963453;28;20494;-73
2022/03/07 08:21:15;;;;;;;49.55;32.17;;;3.10;99.90;;;;;;4969805;28;20106;-73
2022/03/07 08:23:40;;;;;;;49.75;30.70;;;3.10;99.90;;;;;;4971603;28;20540;-73
2022/03/07 08:26:06;;;;;;;43.10;28.85;;;3.10;99.90;;;;;;4971268;28;20027;-73
2022/03/07 08:28:32;;;;;;;50.92;30.75;;;3.20;99.90;;;;;;4972118;28;20022;-73
2022/03/07 08:30:58;;;;;;;45.05;29.48;;;3.20;99.90;;;;;;4972267;28;20026;-73
2022/03/07 08:33:24;;;;;;;46.67;29.88;;;3.20;99.90;;;;;;4972033;28;20038;-73
2022/03/07 08:35:52;;;;;;;46.08;29.30;;;3.40;99.90;;;;;;4972168;28;20540;-73
2022/03/07 08:38:17;;;;;;;43.45;28.83;;;3.40;99.90;;;;;;4971955;28;20030;-73
2022/03/07 08:40:43;;;;;;;52.05;33.58;;;3.40;99.90;;;;;;4971116;28;20027;-73
2022/03/07 08:43:09;;;;;;;48.92;32.17;;;3.50;99.90;;;;;;4972656;28;20030;-73
2022/03/07 08:45:35;;;;;;;44.58;29.77;;;3.50;99.90;;;;;;4971486;28;20439;-72
2022/03/07 08:48:01;;;;;;;48.60;31.83;;;3.60;99.90;;;;;;4972523;28;20041;-73
2022/03/07 08:50:27;;;;;;;51.33;31.02;;;3.70;99.90;;;;;;4972539;28;20031;-73
2022/03/07 08:52:53;;;;;;;43.08;28.90;;;3.90;99.90;;;;;;4971919;28;20074;-73
2022/03/07 08:55:19;;;;;;;42.67;28.85;;;3.80;99.90;;;;;;4971365;28;20030;-73
2022/03/07 08:57:45;;;;;;;41.08;28.45;;;3.80;99.90;;;;;;4972191;28;20102;-73
2022/03/07 09:00:13;;;;;;;43.63;28.05;;;3.70;99.90;;;;;;4972188;28;20037;-73
2022/03/07 09:02:39;;;;;;;45.83;29.02;;;3.70;99.90;;;;;;4972376;28;20026;-73
2022/03/07 09:05:05;;;;;;;40.05;26.42;;;3.70;99.90;;;;;;4973449;28;20480;-72
2022/03/07 09:07:31;;;;;;;47.33;28.55;;;3.60;99.90;;;;;;4975702;28;20060;-73
2022/03/07 09:09:58;;;;;;;41.53;26.15;;;3.50;99.90;;;;;;4975508;28;20749;-73
2022/03/07 09:12:27;;;;;;;36.40;24.70;;;3.30;99.90;;;;;;4975475;28;20042;-73
2022/03/07 09:14:58;;;;;;;39.88;26.23;;;3.20;99.90;;;;;;4975314;28;20046;-73
2022/03/07 09:17:24;;;;;;;45.22;28.05;;;3.30;99.90;;;;;;4975838;28;20038;-73
2022/03/07 09:19:51;;;;;;;41.28;24.65;;;3.20;99.90;;;;;;4975339;28;20023;-73
2022/03/07 09:22:17;;;;;;;39.97;24.13;;;3.20;99.90;;;;;;4975014;28;21250;-73
2022/03/07 09:24:43;;;;;;;39.90;25.50;;;3.10;99.90;;;;;;4975319;28;20110;-72
2022/03/07 09:27:09;;;;;;;42.78;27.83;;;3.10;99.90;;;;;;4975155;28;20472;-73
2022/03/07 09:29:36;;;;;;;39.92;27.30;;;3.10;99.90;;;;;;4975164;28;20070;-73
2022/03/07 09:32:06;;;;;;;41.03;26.85;;;3.10;99.90;;;;;;4974074;28;20035;-73
2022/03/07 09:34:35;;;;;;;40.90;28.63;;;3.10;99.90;;;;;;4974283;28;20126;-73
2022/03/07 09:37:04;;;;;;;38.58;26.02;;;3.10;99.90;;;;;;4974523;28;20053;-73
2022/03/07 09:39:31;;;;;;;40.72;25.48;;;3.10;99.90;;;;;;4974589;28;20026;-73
2022/03/07 09:41:58;;;;;;;46.38;28.17;;;3.10;99.90;;;;;;4975050;28;20101;-73
2022/03/07 09:44:24;;;;;;;38.90;25.70;;;3.10;99.90;;;;;;4974645;28;20122;-73
2022/03/07 09:46:50;;;;;;;39.47;26.23;;;3.10;99.90;;;;;;4974250;28;20046;-73
2022/03/07 09:49:19;;;;;;;38.88;26.15;;;3.20;99.90;;;;;;4974798;28;20106;-73
2022/03/07 09:51:44;;;;;;;39.47;24.90;;;3.30;99.90;;;;;;4974586;28;20034;-72
2022/03/07 09:54:10;;;;;;;38.35;24.95;;;3.30;99.90;;;;;;4974491;28;20057;-73
2022/03/07 09:56:36;;;;;;;41.33;27.23;;;3.30;99.90;;;;;;4974980;28;20035;-73
2022/03/07 09:59:03;;;;;;;44.58;28.63;;;3.30;99.90;;;;;;4974500;28;20077;-73
2022/03/07 10:01:29;;;;;;;44.08;27.70;;;3.40;99.90;;;;;;4974051;28;20023;-73
2022/03/07 10:04:09;;;;;;;43.75;26.27;;;3.40;99.90;;;;;;4973049;28;20066;-73
2022/03/07 10:06:36;;;;;;;41.80;26.85;;;3.50;99.90;;;;;;4973926;28;20039;-72
2022/03/07 10:09:04;;;;;;;42.17;27.25;;;3.60;99.90;;;;;;4973973;28;20050;-73
2022/03/07 10:11:32;;;;;;;49.38;28.55;;;3.60;99.90;;;;;;4974176;28;20039;-73
2022/03/07 10:14:03;;;;;;;48.40;31.10;;;3.60;99.90;;;;;;4973699;28;20074;-73
2022/03/07 10:16:43;;;;;;;41.40;26.90;;;3.90;99.90;;;;;;4974054;28;20044;-73
2022/03/07 10:19:11;;;;;;;47.47;30.05;;;4.10;99.90;;;;;;4974616;28;20065;-73
2022/03/07 10:21:45;;;;;;;38.10;25.55;;;4.40;99.90;;;;;;4974294;28;20023;-73
2022/03/07 10:24:11;;;;;;;39.78;24.52;;;4.40;99.90;;;;;;4974163;28;20027;-73
2022/03/07 10:26:37;;;;;;;38.53;25.05;;;4.50;99.90;;;;;;4974120;28;20385;-73
2022/03/07 10:29:04;;;;;;;41.83;27.17;;;4.60;99.90;;;;;;4973401;28;20034;-73
2022/03/07 10:31:31;;;;;;;36.05;21.60;;;4.70;99.90;;;;;;4973835;28;20393;-74
2022/03/07 10:34:08;;;;;;;32.38;21.58;;;4.70;99.90;;;;;;4974003;28;20748;-73
2022/03/07 10:36:45;;;;;;;32.30;20.35;;;4.40;99.90;;;;;;4974033;28;20043;-73
2022/03/07 10:39:15;;;;;;;35.25;22.13;;;4.60;99.90;;;;;;4973282;28;20030;-73
2022/03/07 10:41:43;;;;;;;42.83;23.02;;;4.60;99.90;;;;;;4972493;28;20101;-73
2022/03/07 10:44:30;;;;;;;42.65;27.20;;;4.60;99.90;;;;;;4973677;28;20101;-73
2022/03/07 10:47:14;;;;;;;36.83;24.27;;;4.60;99.90;;;;;;4973244;28;20055;-73
2022/03/07 10:49:58;;;;;;;40.90;26.05;;;4.60;99.90;;;;;;4974308;28;20034;-73
2022/03/07 10:52:33;;;;;;;37.50;24.58;;;4.70;99.90;;;;;;4970775;28;20031;-73
2022/03/07 10:54:59;;;;;;;38.42;22.75;;;4.70;99.90;;;;;;4973258;28;20035;-73
2022/03/07 10:57:24;;;;;;;40.63;27.30;;;4.60;99.90;;;;;;4973686;28;20480;-73
2022/03/07 10:59:50;;;;;;;37.65;24.63;;;4.70;99.90;;;;;;4973439;28;20034;-74
2022/03/07 11:02:17;;;;;;;33.83;21.98;;;4.80;99.90;;;;;;4972703;28;20389;-73
2022/03/07 11:04:48;;;;;;;34.05;21.70;;;4.60;99.90;;;;;;4973657;28;20027;-73
2022/03/07 11:07:15;;;;;;;35.13;22.25;;;4.70;99.90;;;;;;4972810;28;20027;-74
2022/03/07 11:09:42;;;;;;;30.35;19.38;;;4.60;99.90;;;;;;4973500;28;20023;-72
2022/03/07 11:12:12;;;;;;;31.80;20.60;;;4.50;99.90;;;;;;4973107;28;20033;-72
2022/03/07 11:14:42;;;;;;;30.60;20.05;;;4.60;99.90;;;;;;4973214;28;20034;-73
2022/03/07 11:17:18;;;;;;;33.67;20.83;;;4.50;99.90;;;;;;4973435;28;20557;-73
2022/03/07 11:19:46;;;;;;;34.17;19.77;;;4.60;99.90;;;;;;4973340;28;20041;-71
2022/03/07 11:22:18;;;;;;;35.40;19.95;;;4.50;99.90;;;;;;4983500;28;20014;-73
2022/03/07 11:24:46;;;;;;;31.27;19.63;;;4.40;99.90;;;;;;4977293;28;20050;-73
2022/03/07 11:27:18;;;;;;;28.50;18.40;;;4.40;99.90;;;;;;4968130;28;20031;-73
2022/03/07 11:29:44;;;;;;;33.75;20.92;;;4.30;99.90;;;;;;4967396;28;20015;-73
2022/03/07 11:32:13;;;;;;;36.90;24.80;;;4.30;99.90;;;;;;4970419;28;20121;-72
2022/03/07 11:34:50;;;;;;;32.13;19.55;;;4.40;99.90;;;;;;4972822;28;20038;-72
2022/03/07 11:37:18;;;;;;;36.65;22.45;;;4.30;99.90;;;;;;4973651;28;20117;-73
2022/03/07 11:39:44;;;;;;;39.22;22.33;;;4.40;99.90;;;;;;4971648;28;20046;-73
2022/03/07 11:42:15;;;;;;;31.35;20.42;;;4.40;99.90;;;;;;4969615;28;20489;-72
2022/03/07 11:44:42;;;;;;;32.50;20.73;;;4.40;99.90;;;;;;4972949;28;20058;-72
2022/03/07 11:47:14;;;;;;;33.45;20.17;;;4.40;99.90;;;;;;4973000;28;20034;-73
2022/03/07 11:49:41;;;;;;;38.03;23.48;;;4.50;99.90;;;;;;4973041;28;20053;-72
2022/03/07 11:52:09;;;;;;;42.25;25.05;;;4.70;99.90;;;;;;4971876;28;20027;-73
2022/03/07 11:54:59;;;;;;;33.22;21.40;;;5.00;99.90;;;;;;4965604;28;20039;-73
2022/03/07 11:57:46;;;;;;;37.15;23.35;;;4.60;99.90;;;;;;4967491;28;20051;-73
2022/03/07 12:00:16;;;;;;;39.72;25.02;;;4.70;99.90;;;;;;4971587;28;20034;-73
2022/03/07 12:02:44;;;;;;;38.85;23.52;;;4.90;99.90;;;;;;4971959;28;20436;-73
2022/03/07 12:05:39;;;;;;;38.15;22.98;;;5.10;99.90;;;;;;4970060;28;20022;-72
2022/03/07 12:08:17;;;;;;;36.13;23.17;;;5.00;99.90;;;;;;4983228;28;20081;-73
2022/03/07 12:11:02;;;;;;;36.78;22.25;;;4.90;99.90;;;;;;4988705;28;20042;-73
2022/03/07 12:13:32;;;;;;;35.85;23.15;;;5.00;99.90;;;;;;4989472;28;20062;-73
2022/03/07 12:15:58;;;;;;;32.95;21.67;;;4.90;99.90;;;;;;4989723;28;20034;-73
2022/03/07 12:18:26;;;;;;;36.90;23.35;;;4.80;99.90;;;;;;4984485;28;20034;-73
2022/03/07 12:20:55;;;;;;;44.70;24.15;;;4.60;99.90;;;;;;4989351;28;20040;-74
2022/03/07 12:23:24;;;;;;;35.75;22.60;;;4.50;99.90;;;;;;4989902;28;20022;-73
2022/03/07 12:26:16;;;;;;;30.67;20.50;;;4.70;99.90;;;;;;4989886;28;20038;-73
2022/03/07 12:28:45;;;;;;;36.40;21.55;;;4.50;99.90;;;;;;4987280;28;20070;-73
2022/03/07 12:31:11;;;;;;;35.33;21.45;;;4.50;99.90;;;;;;5001927;28;20061;-73
2022/03/07 12:33:38;;;;;;;33.63;21.10;;;4.50;99.90;;;;;;5008306;28;20092;-73
2022/03/07 12:36:09;;;;;;;35.42;22.35;;;4.50;99.90;;;;;;4992926;28;20034;-72
2022/03/07 12:38:43;;;;;;;34.10;21.67;;;4.50;99.90;;;;;;5009877;28;20093;-73